Time;durP1;ratioP1;P1;durP2;ratioP2;P2;SDS_P1;SDS_P2;PMS_P1;PMS_P2;Temp;Humidity;BMP_temperature;BMP_pressure;BME280_temperature;BME280_humidity;BME280_pressure;Samples;Min_cycle;Max_cycle;Signal;HPM_P1;HPM_P2
2024/03/13 00:01:26;;;;;;;;;;;;;;;;;;5081471;28;19951;-74
2024/03/13 00:03:53;;;;;;;;;;;;;;;;;;5081442;28;20300;-74
2024/03/13 00:06:21;;;;;;;;;;;;;;;;;;5081442;28;19929;-72
2024/03/13 00:08:47;;;;;;;;;;;;;;;;;;5080324;28;19928;-71
2024/03/13 00:11:13;;;;;;;;;;;;;;;;;;5077691;28;19928;-72
2024/03/13 00:13:42;;;;;;;;;;;;;;;;;;5077108;28;19928;-73
2024/03/13 00:16:09;;;;;;;;;;;;;;;;;;5079561;28;19924;-73
2024/03/13 00:18:37;;;;;;;;;;;;;;;;;;5077501;28;19935;-74
2024/03/13 00:21:03;;;;;;;;;;;;;;;;;;5079591;28;20392;-74
2024/03/13 00:23:29;;;;;;;;;;;;;;;;;;5081333;28;20004;-73
2024/03/13 00:25:56;;;;;;;;;;;;;;;;;;5082023;28;20388;-72
2024/03/13 00:28:22;;;;;;;;;;;;;;;;;;5082111;28;20816;-73
2024/03/13 00:30:48;;;;;;;;;;;;;;;;;;5077104;28;19932;-72
2024/03/13 00:33:15;;;;;;;;;;;;;;;;;;5079745;28;19928;-72
2024/03/13 00:35:41;;;;;;;;;;;;;;;;;;5081621;28;20386;-72
2024/03/13 00:38:09;;;;;;;;;;;;;;;;;;5078179;28;19929;-73
2024/03/13 00:40:37;;;;;;;;;;;;;;;;;;5077334;28;19925;-72
2024/03/13 00:43:03;;;;;;;;;;;;;;;;;;5082511;28;20347;-72
2024/03/13 00:45:30;;;;;;;;;;;;;;;;;;5098303;28;19924;-72
2024/03/13 00:47:56;;;;;;;;;;;;;;;;;;5078209;28;19928;-74
2024/03/13 00:50:22;;;;;;;;;;;;;;;;;;5096482;28;19928;-74
2024/03/13 00:52:50;;;;;;;;;;;;;;;;;;5078935;28;19928;-71
2024/03/13 00:55:16;;;;;;;;;;;;;;;;;;5080642;28;19967;-72
2024/03/13 00:57:43;;;;;;;;;;;;;;;;;;5078116;28;19929;-73
2024/03/13 01:00:10;;;;;;;;;;;;;;;;;;5077139;28;20277;-72
2024/03/13 01:02:36;;;;;;;;;;;;;;;;;;5078830;28;19928;-72
2024/03/13 01:05:05;;;;;;;;;;;;;;;;;;5082219;28;19924;-73
2024/03/13 01:07:31;;;;;;;;;;;;;;;;;;5084708;28;19932;-71
2024/03/13 01:10:00;;;;;;;;;;;;;;;;;;5084558;28;19946;-74
2024/03/13 01:12:26;;;;;;;;;;;;;;;;;;5084194;28;19943;-72
2024/03/13 01:14:52;;;;;;;;;;;;;;;;;;5091696;28;19924;-73
2024/03/13 01:17:19;;;;;;;;;;;;;;;;;;5081874;28;19925;-73
2024/03/13 01:19:47;;;;;;;;;;;;;;;;;;5082363;28;19928;-74
2024/03/13 01:22:15;;;;;;;;;;;;;;;;;;5079282;28;20041;-75
2024/03/13 01:24:42;;;;;;;;;;;;;;;;;;5081556;28;19928;-74
2024/03/13 01:27:10;;;;;;;;;;;;;;;;;;5085948;28;19932;-75
2024/03/13 01:29:38;;;;;;;;;;;;;;;;;;5082648;28;20292;-76
2024/03/13 01:32:04;;;;;;;;;;;;;;;;;;5078893;28;19931;-76
2024/03/13 01:34:31;;;;;;;;;;;;;;;;;;5083359;28;19928;-76
2024/03/13 01:39:43;;;;;;;;;;;;;;;;;;5080499;28;20381;-77
2024/03/13 01:56:04;;;;;;;;;;;;;;;;;;5083738;28;19928;-74
2024/03/13 01:58:40;;;;;;;;;;;;;;;;;;5080070;28;20006;-75
2024/03/13 02:04:11;;;;;;;;;;;;;;;;;;5012535;28;20002;-76
2024/03/13 02:06:38;;;;;;;;;;;;;;;;;;5014116;28;19944;-77
2024/03/13 02:09:06;;;;;;;;;;;;;;;;;;5044875;28;19924;-76
2024/03/13 02:11:32;;;;;;;;;;;;;;;;;;5083560;28;19928;-77
2024/03/13 02:14:04;;;;;;;;;;;;;;;;;;5083743;28;20355;-75
2024/03/13 02:16:30;;;;;;;;;;;;;;;;;;5080500;28;19924;-77
2024/03/13 02:18:59;;;;;;;;;;;;;;;;;;5081719;28;20023;-76
2024/03/13 02:21:25;;;;;;;;;;;;;;;;;;5081586;28;20373;-76
2024/03/13 02:23:51;;;;;;;;;;;;;;;;;;5089675;28;19977;-76
2024/03/13 02:26:19;;;;;;;;;;;;;;;;;;5081967;28;19928;-78
2024/03/13 02:28:45;;;;;;;;;;;;;;;;;;5098108;28;19967;-76
2024/03/13 02:31:11;;;;;;;;;;;;;;;;;;5079876;28;19928;-77
2024/03/13 02:33:38;;;;;;;;;;;;;;;;;;5083934;28;20052;-77
2024/03/13 02:36:05;;;;;;;;;;;;;;;;;;5076450;28;20352;-77
2024/03/13 02:38:32;;;;;;;;;;;;;;;;;;5082321;28;20023;-76
2024/03/13 02:40:58;;;;;;;;;;;;;;;;;;5081253;28;20433;-77
2024/03/13 02:43:24;;;;;;;;;;;;;;;;;;5081431;28;19935;-77
2024/03/13 02:45:51;;;;;;;;;;;;;;;;;;5090395;28;19928;-76
2024/03/13 02:48:17;;;;;;;;;;;;;;;;;;5087185;28;20013;-78
2024/03/13 02:50:44;;;;;;;;;;;;;;;;;;5080470;28;20026;-74
2024/03/13 02:53:10;;;;;;;;;;;;;;;;;;5090289;28;20403;-76
2024/03/13 02:55:37;;;;;;;;;;;;;;;;;;5069053;28;19958;-76
2024/03/13 02:58:03;;;;;;;;;;;;;;;;;;5080351;28;20433;-78
2024/03/13 03:00:29;;;;;;;;;;;;;;;;;;5071103;28;19928;-76
2024/03/13 03:02:56;;;;;;;;;;;;;;;;;;5070767;28;19932;-75
2024/03/13 03:05:22;;;;;;;;;;;;;;;;;;5084187;28;20394;-76
2024/03/13 03:07:49;;;;;;;;;;;;;;;;;;5077517;28;19946;-77
2024/03/13 03:10:15;;;;;;;;;;;;;;;;;;5081706;28;19955;-75
2024/03/13 03:12:43;;;;;;;;;;;;;;;;;;5082080;28;19932;-75
2024/03/13 03:15:10;;;;;;;;;;;;;;;;;;5080602;28;19931;-78
2024/03/13 03:17:36;;;;;;;;;;;;;;;;;;5082721;28;20027;-76
2024/03/13 03:20:03;;;;;;;;;;;;;;;;;;5084536;28;19974;-76
2024/03/13 03:22:30;;;;;;;;;;;;;;;;;;5080401;28;19978;-76
2024/03/13 03:24:56;;;;;;;;;;;;;;;;;;5072605;28;19995;-74
2024/03/13 03:27:24;;;;;;;;;;;;;;;;;;5082061;28;19935;-75
2024/03/13 03:29:52;;;;;;;;;;;;;;;;;;5071841;28;19924;-76
2024/03/13 03:32:19;;;;;;;;;;;;;;;;;;5078217;28;20446;-76
2024/03/13 03:34:45;;;;;;;;;;;;;;;;;;5097275;28;19954;-77
2024/03/13 03:37:13;;;;;;;;;;;;;;;;;;5070554;28;19928;-77
2024/03/13 03:39:40;;;;;;;;;;;;;;;;;;5082381;28;19932;-75
2024/03/13 03:42:06;;;;;;;;;;;;;;;;;;5083320;28;19946;-76
2024/03/13 03:44:33;;;;;;;;;;;;;;;;;;5081679;28;20258;-76
2024/03/13 03:46:59;;;;;;;;;;;;;;;;;;5072090;28;20003;-77
2024/03/13 03:49:25;;;;;;;;;;;;;;;;;;5087837;28;20300;-77
2024/03/13 03:51:52;;;;;;;;;;;;;;;;;;5094859;28;20269;-73
2024/03/13 03:54:20;;;;;;;;;;;;;;;;;;5072173;28;19958;-77
2024/03/13 03:56:46;;;;;;;;;;;;;;;;;;5080536;28;19932;-76
2024/03/13 03:59:13;;;;;;;;;;;;;;;;;;5079472;28;19934;-76
2024/03/13 04:01:41;;;;;;;;;;;;;;;;;;5077237;28;19925;-75
2024/03/13 04:04:08;;;;;;;;;;;;;;;;;;5082772;28;20003;-76
2024/03/13 04:06:34;;;;;;;;;;;;;;;;;;5082312;28;20018;-76
2024/03/13 04:09:14;;;;;;;;;;;;;;;;;;5076930;28;19948;-76
2024/03/13 04:11:40;;;;;;;;;;;;;;;;;;5078788;28;19929;-77
2024/03/13 04:14:07;;;;;;;;;;;;;;;;;;5077992;28;19924;-73
2024/03/13 04:16:33;;;;;;;;;;;;;;;;;;5075609;28;19928;-75
2024/03/13 04:18:59;;;;;;;;;;;;;;;;;;5080729;28;19924;-74
2024/03/13 04:21:27;;;;;;;;;;;;;;;;;;5078742;28;20019;-77
2024/03/13 04:23:54;;;;;;;;;;;;;;;;;;5082307;28;19928;-76
2024/03/13 04:26:21;;;;;;;;;;;;;;;;;;5081154;28;20015;-76
2024/03/13 04:28:47;;;;;;;;;;;;;;;;;;5087375;28;19928;-77
2024/03/13 04:31:13;;;;;;;;;;;;;;;;;;5064267;28;19959;-76
2024/03/13 04:33:43;;;;;;;;;;;;;;;;;;5079779;28;19947;-76
2024/03/13 04:36:09;;;;;;;;;;;;;;;;;;5080501;28;19931;-76
2024/03/13 04:38:36;;;;;;;;;;;;;;;;;;5079462;28;19935;-77
2024/03/13 04:41:02;;;;;;;;;;;;;;;;;;5082751;28;19932;-73
2024/03/13 04:43:30;;;;;;;;;;;;;;;;;;5084507;28;19931;-76
2024/03/13 04:45:57;;;;;;;;;;;;;;;;;;5083989;28;19924;-76
2024/03/13 04:48:25;;;;;;;;;;;;;;;;;;5082929;28;19968;-75
2024/03/13 04:50:51;;;;;;;;;;;;;;;;;;5077127;28;20589;-77
2024/03/13 04:53:22;;;;;;;;;;;;;;;;;;5085712;28;19924;-76
2024/03/13 04:55:49;;;;;;;;;;;;;;;;;;5086660;28;19985;-77
2024/03/13 04:58:15;;;;;;;;;;;;;;;;;;5084527;28;19924;-76
2024/03/13 05:00:42;;;;;;;;;;;;;;;;;;5085283;28;19964;-76
2024/03/13 05:03:08;;;;;;;;;;;;;;;;;;5088681;28;19973;-76
2024/03/13 05:05:35;;;;;;;;;;;;;;;;;;5085507;28;20430;-75
2024/03/13 05:08:01;;;;;;;;;;;;;;;;;;5073975;28;19929;-76
2024/03/13 05:10:29;;;;;;;;;;;;;;;;;;5078069;28;19935;-75
2024/03/13 05:12:56;;;;;;;;;;;;;;;;;;5103327;28;20376;-74
2024/03/13 05:15:22;;;;;;;;;;;;;;;;;;5085020;28;20308;-75
2024/03/13 05:17:49;;;;;;;;;;;;;;;;;;5082152;28;19928;-76
2024/03/13 05:20:17;;;;;;;;;;;;;;;;;;5079121;28;19935;-76
2024/03/13 05:22:45;;;;;;;;;;;;;;;;;;5088119;28;20026;-76
2024/03/13 05:25:16;;;;;;;;;;;;;;;;;;5086798;28;19935;-76
2024/03/13 05:27:46;;;;;;;;;;;;;;;;;;5092452;28;19941;-78
2024/03/13 05:30:12;;;;;;;;;;;;;;;;;;5097813;28;19928;-78
2024/03/13 05:32:38;;;;;;;;;;;;;;;;;;5083125;28;19932;-76
2024/03/13 05:35:06;;;;;;;;;;;;;;;;;;5083306;28;20353;-78
2024/03/13 05:37:34;;;;;;;;;;;;;;;;;;5087536;28;20060;-77
2024/03/13 05:40:11;;;;;;;;;;;;;;;;;;5084793;28;20283;-77
2024/03/13 05:42:38;;;;;;;;;;;;;;;;;;5090033;28;20280;-77
2024/03/13 05:45:06;;;;;;;;;;;;;;;;;;5099190;28;20470;-76
2024/03/13 05:47:32;;;;;;;;;;;;;;;;;;5080316;28;19939;-76
2024/03/13 05:49:59;;;;;;;;;;;;;;;;;;5087570;28;19934;-76
2024/03/13 05:52:26;;;;;;;;;;;;;;;;;;5081089;28;20350;-76
2024/03/13 05:54:52;;;;;;;;;;;;;;;;;;5083921;28;20047;-77
2024/03/13 05:57:22;;;;;;;;;;;;;;;;;;5079325;28;19963;-76
2024/03/13 05:59:48;;;;;;;;;;;;;;;;;;5087031;28;20454;-74
2024/03/13 06:02:15;;;;;;;;;;;;;;;;;;5083818;28;19929;-76
2024/03/13 06:04:42;;;;;;;;;;;;;;;;;;5081561;28;19931;-76
2024/03/13 06:07:08;;;;;;;;;;;;;;;;;;5083025;28;19928;-76
2024/03/13 06:09:36;;;;;;;;;;;;;;;;;;5067965;28;19928;-76
2024/03/13 06:12:02;;;;;;;;;;;;;;;;;;5081994;28;19928;-76
2024/03/13 06:14:29;;;;;;;;;;;;;;;;;;5083507;28;20365;-75
2024/03/13 06:16:55;;;;;;;;;;;;;;;;;;5092131;28;19924;-76
2024/03/13 06:19:21;;;;;;;;;;;;;;;;;;5084152;28;19924;-75
2024/03/13 06:21:49;;;;;;;;;;;;;;;;;;5072527;28;20102;-76
2024/03/13 06:24:20;;;;;;;;;;;;;;;;;;5078155;28;20007;-75
2024/03/13 06:26:48;;;;;;;;;;;;;;;;;;5082355;28;19925;-76
2024/03/13 06:32:02;;;;;;;;;;;;;;;;;;5085948;28;19930;-77
2024/03/13 06:34:29;;;;;;;;;;;;;;;;;;5083020;28;19977;-76
2024/03/13 06:36:56;;;;;;;;;;;;;;;;;;5104119;28;19924;-76
2024/03/13 06:39:22;;;;;;;;;;;;;;;;;;5085227;28;20023;-77
2024/03/13 06:41:50;;;;;;;;;;;;;;;;;;5075536;28;19928;-76
2024/03/13 06:44:17;;;;;;;;;;;;;;;;;;5082835;28;19931;-77
2024/03/13 06:46:44;;;;;;;;;;;;;;;;;;5088600;28;19938;-76
2024/03/13 06:49:11;;;;;;;;;;;;;;;;;;5083673;28;19931;-76
2024/03/13 06:51:37;;;;;;;;;;;;;;;;;;5083895;28;20376;-76
2024/03/13 06:54:04;;;;;;;;;;;;;;;;;;5089966;28;19975;-76
2024/03/13 06:56:31;;;;;;;;;;;;;;;;;;5085528;28;19924;-77
2024/03/13 06:58:58;;;;;;;;;;;;;;;;;;5080602;28;20388;-76
2024/03/13 07:01:24;;;;;;;;;;;;;;;;;;5075867;28;19924;-77
2024/03/13 07:03:52;;;;;;;;;;;;;;;;;;5059313;28;20015;-76
2024/03/13 07:06:18;;;;;;;;;;;;;;;;;;5086917;28;19928;-74
2024/03/13 07:08:45;;;;;;;;;;;;;;;;;;5087803;28;20323;-76
2024/03/13 07:11:13;;;;;;;;;;;;;;;;;;5100170;28;19924;-77
2024/03/13 07:13:39;;;;;;;;;;;;;;;;;;5100113;28;19935;-76
2024/03/13 07:16:05;;;;;;;;;;;;;;;;;;5098078;28;19924;-78
2024/03/13 07:18:32;;;;;;;;;;;;;;;;;;5098890;28;19920;-79
2024/03/13 07:20:58;;;;;;;;;;;;;;;;;;5100140;28;19991;-77
2024/03/13 07:23:25;;;;;;;;;;;;;;;;;;5096083;28;19942;-77
2024/03/13 07:25:55;;;;;;;;;;;;;;;;;;5100914;28;20027;-76
2024/03/13 07:28:21;;;;;;;;;;;;;;;;;;5105231;28;19931;-75
2024/03/13 07:30:48;;;;;;;;;;;;;;;;;;5103893;28;19912;-78
2024/03/13 07:33:14;;;;;;;;;;;;;;;;;;5096128;28;19935;-79
2024/03/13 07:35:41;;;;;;;;;;;;;;;;;;5099768;28;19954;-76
2024/03/13 07:38:10;;;;;;;;;;;;;;;;;;5084849;28;19927;-78
2024/03/13 07:40:40;;;;;;;;;;;;;;;;;;5106705;28;19967;-78
2024/03/13 07:43:08;;;;;;;;;;;;;;;;;;5101237;28;20534;-80
2024/03/13 07:45:35;;;;;;;;;;;;;;;;;;5100588;28;19968;-74
2024/03/13 07:48:03;;;;;;;;;;;;;;;;;;5111560;28;20338;-75
2024/03/13 07:50:29;;;;;;;;;;;;;;;;;;5099713;28;19949;-77
2024/03/13 07:52:55;;;;;;;;;;;;;;;;;;5109148;28;20333;-76
2024/03/13 07:55:22;;;;;;;;;;;;;;;;;;5108429;28;19967;-75
2024/03/13 07:57:48;;;;;;;;;;;;;;;;;;5103689;28;19931;-77
2024/03/13 08:00:16;;;;;;;;;;;;;;;;;;5100940;28;19963;-78
2024/03/13 08:02:43;;;;;;;;;;;;;;;;;;5100062;28;19924;-77
2024/03/13 08:05:10;;;;;;;;;;;;;;;;;;5101716;28;20004;-78
2024/03/13 08:07:37;;;;;;;;;;;;;;;;;;5112118;28;19914;-77
2024/03/13 08:10:25;;;;;;;;;;;;;;;;;;5099619;28;19912;-78
2024/03/13 08:13:09;;;;;;;;;;;;;;;;;;5097909;28;19912;-79
2024/03/13 08:15:53;;;;;;;;;;;;;;;;;;5098343;28;19916;-78
2024/03/13 08:18:38;;;;;;;;;;;;;;;;;;5104831;28;20263;-79
2024/03/13 08:21:22;;;;;;;;;;;;;;;;;;5105098;28;20457;-75
2024/03/13 08:24:06;;;;;;;;;;;;;;;;;;5107821;28;20026;-77
2024/03/13 08:26:50;;;;;;;;;;;;;;;;;;5107189;28;19909;-77
2024/03/13 08:29:34;;;;;;;;;;;;;;;;;;5105943;28;19924;-77
2024/03/13 08:32:18;;;;;;;;;;;;;;;;;;5103566;28;19919;-77
2024/03/13 08:35:01;;;;;;;;;;;;;;;;;;5101160;28;19940;-76
2024/03/13 08:37:47;;;;;;;;;;;;;;;;;;5099446;28;19916;-76
2024/03/13 08:40:32;;;;;;;;;;;;;;;;;;5078011;28;20360;-77
2024/03/13 08:43:19;;;;;;;;;;;;;;;;;;5097079;28;19917;-77
2024/03/13 08:46:03;;;;;;;;;;;;;;;;;;5092284;28;20432;-77
2024/03/13 08:48:47;;;;;;;;;;;;;;;;;;5076252;28;19920;-76
2024/03/13 08:51:31;;;;;;;;;;;;;;;;;;5086328;28;19948;-76
2024/03/13 08:54:17;;;;;;;;;;;;;;;;;;5084047;28;19923;-74
2024/03/13 08:57:01;;;;;;;;;;;;;;;;;;5089520;28;19916;-77
2024/03/13 08:59:47;;;;;;;;;;;;;;;;;;5094325;28;20652;-76
2024/03/13 09:02:30;;;;;;;;;;;;;;;;;;5089538;28;19912;-76
2024/03/13 09:05:15;;;;;;;;;;;;;;;;;;5095097;28;19912;-78
2024/03/13 09:07:59;;;;;;;;;;;;;;;;;;5098601;28;19917;-77
2024/03/13 09:10:25;;;;;;;;;;;;;;;;;;5092082;28;20374;-75
2024/03/13 09:12:52;;;;;;;;;;;;;;;;;;5091371;28;20000;-77
2024/03/13 09:15:18;;;;;;;;;;;;;;;;;;5083672;28;20023;-73
2024/03/13 09:17:45;;;;;;;;;;;;;;;;;;5089288;28;19935;-76
2024/03/13 09:20:14;;;;;;;;;;;;;;;;;;5080136;28;19928;-78
2024/03/13 09:22:44;;;;;;;;;;;;;;;;;;5083880;28;19924;-77
2024/03/13 09:25:11;;;;;;;;;;;;;;;;;;5091796;28;20396;-76
2024/03/13 09:27:38;;;;;;;;;;;;;;;;;;5082063;28;19928;-76
2024/03/13 09:30:06;;;;;;;;;;;;;;;;;;5084289;28;19928;-76
2024/03/13 09:32:32;;;;;;;;;;;;;;;;;;5088503;28;20637;-74
2024/03/13 09:34:59;;;;;;;;;;;;;;;;;;5085159;28;19935;-75
2024/03/13 09:37:26;;;;;;;;;;;;;;;;;;5084945;28;19925;-76
2024/03/13 09:39:52;;;;;;;;;;;;;;;;;;5069566;28;19975;-76
2024/03/13 09:42:22;;;;;;;;;;;;;;;;;;5082980;28;19928;-76
2024/03/13 09:44:48;;;;;;;;;;;;;;;;;;5081242;28;20284;-73
2024/03/13 09:47:15;;;;;;;;;;;;;;;;;;5082420;28;19928;-76
2024/03/13 09:49:41;;;;;;;;;;;;;;;;;;5078141;28;19924;-77
2024/03/13 09:52:07;;;;;;;;;;;;;;;;;;5079411;28;19931;-76
2024/03/13 09:54:34;;;;;;;;;;;;;;;;;;5080304;28;20384;-75
2024/03/13 09:57:01;;;;;;;;;;;;;;;;;;5098011;28;19931;-76
2024/03/13 09:59:27;;;;;;;;;;;;;;;;;;5072846;28;20438;-75
2024/03/13 10:01:54;;;;;;;;;;;;;;;;;;5100469;28;19928;-76
2024/03/13 10:04:24;;;;;;;;;;;;;;;;;;5078092;28;19928;-75
2024/03/13 10:06:53;;;;;;;;;;;;;;;;;;5090106;28;19974;-76
2024/03/13 10:09:23;;;;;;;;;;;;;;;;;;5078775;28;19960;-75
2024/03/13 10:11:49;;;;;;;;;;;;;;;;;;5082148;28;19954;-74
2024/03/13 10:14:16;;;;;;;;;;;;;;;;;;5084051;28;19928;-74
2024/03/13 10:16:45;;;;;;;;;;;;;;;;;;5081970;28;19924;-75
2024/03/13 10:19:16;;;;;;;;;;;;;;;;;;5084005;28;19952;-75
2024/03/13 10:21:44;;;;;;;;;;;;;;;;;;5083098;28;20288;-74
2024/03/13 10:24:10;;;;;;;;;;;;;;;;;;5085915;28;19931;-73
2024/03/13 10:26:40;;;;;;;;;;;;;;;;;;5084191;28;19924;-74
2024/03/13 10:29:10;;;;;;;;;;;;;;;;;;5065609;28;20019;-74
2024/03/13 10:31:39;;;;;;;;;;;;;;;;;;5080826;28;19935;-77
2024/03/13 10:34:07;;;;;;;;;;;;;;;;;;5085191;28;20027;-75
2024/03/13 10:36:34;;;;;;;;;;;;;;;;;;5081881;28;20038;-76
2024/03/13 10:39:01;;;;;;;;;;;;;;;;;;5080313;28;20391;-75
2024/03/13 10:41:29;;;;;;;;;;;;;;;;;;5081994;28;20439;-76
2024/03/13 10:43:55;;;;;;;;;;;;;;;;;;5071635;28;20394;-75
2024/03/13 10:46:22;;;;;;;;;;;;;;;;;;5066341;28;20385;-76
2024/03/13 10:48:48;;;;;;;;;;;;;;;;;;5078604;28;20428;-75
2024/03/13 10:51:15;;;;;;;;;;;;;;;;;;5080104;28;19964;-75
2024/03/13 10:53:42;;;;;;;;;;;;;;;;;;5079778;28;20269;-76
2024/03/13 10:56:08;;;;;;;;;;;;;;;;;;5095955;28;19925;-75
2024/03/13 10:58:35;;;;;;;;;;;;;;;;;;5067632;28;19932;-74
2024/03/13 11:01:01;;;;;;;;;;;;;;;;;;5089505;28;19928;-76
2024/03/13 11:03:28;;;;;;;;;;;;;;;;;;5081543;28;19924;-73
2024/03/13 11:05:54;;;;;;;;;;;;;;;;;;5081464;28;19928;-76
2024/03/13 11:08:21;;;;;;;;;;;;;;;;;;5072871;28;20269;-76
2024/03/13 11:10:52;;;;;;;;;;;;;;;;;;5073044;28;20399;-76
2024/03/13 11:13:31;;;;;;;;;;;;;;;;;;5099691;28;20300;-76
2024/03/13 11:15:58;;;;;;;;;;;;;;;;;;5083781;28;20304;-76
2024/03/13 11:18:25;;;;;;;;;;;;;;;;;;5079393;28;20439;-74
2024/03/13 11:20:53;;;;;;;;;;;;;;;;;;5082526;28;20469;-76
2024/03/13 11:23:19;;;;;;;;;;;;;;;;;;5082485;28;20395;-76
2024/03/13 11:25:47;;;;;;;;;;;;;;;;;;5066717;28;19924;-76
2024/03/13 11:28:15;;;;;;;;;;;;;;;;;;5077489;28;19925;-75
2024/03/13 11:30:41;;;;;;;;;;;;;;;;;;5081896;28;19932;-76
2024/03/13 11:33:08;;;;;;;;;;;;;;;;;;5078878;28;20429;-75
2024/03/13 11:35:34;;;;;;;;;;;;;;;;;;5081650;28;19964;-76
2024/03/13 11:38:00;;;;;;;;;;;;;;;;;;5073540;28;19932;-75
2024/03/13 11:40:32;;;;;;;;;;;;;;;;;;5078559;28;20403;-75
2024/03/13 11:42:59;;;;;;;;;;;;;;;;;;5089258;28;20019;-76
2024/03/13 11:45:26;;;;;;;;;;;;;;;;;;5080339;28;19929;-75
2024/03/13 11:48:00;;;;;;;;;;;;;;;;;;5084072;28;19924;-75
2024/03/13 11:50:27;;;;;;;;;;;;;;;;;;5079956;28;20307;-76
2024/03/13 11:52:54;;;;;;;;;;;;;;;;;;5065773;28;19932;-77
2024/03/13 11:55:20;;;;;;;;;;;;;;;;;;5090813;28;19934;-76
2024/03/13 11:57:46;;;;;;;;;;;;;;;;;;5066283;28;19931;-75
2024/03/13 12:00:13;;;;;;;;;;;;;;;;;;5079461;28;19947;-74
2024/03/13 12:02:39;;;;;;;;;;;;;;;;;;5080483;28;20341;-75
2024/03/13 12:05:06;;;;;;;;;;;;;;;;;;5081620;28;19931;-76
2024/03/13 12:07:35;;;;;;;;;;;;;;;;;;5078969;28;20021;-75
2024/03/13 12:10:01;;;;;;;;;;;;;;;;;;5079998;28;19928;-75
2024/03/13 12:12:27;;;;;;;;;;;;;;;;;;5089172;28;19924;-75
2024/03/13 12:14:55;;;;;;;;;;;;;;;;;;5082787;28;20327;-75
2024/03/13 12:17:21;;;;;;;;;;;;;;;;;;5081320;28;20007;-76
2024/03/13 12:19:48;;;;;;;;;;;;;;;;;;5070380;28;19929;-75
2024/03/13 12:22:14;;;;;;;;;;;;;;;;;;5072581;28;19932;-76
2024/03/13 12:24:41;;;;;;;;;;;;;;;;;;5070840;28;20023;-76
2024/03/13 12:27:07;;;;;;;;;;;;;;;;;;5076648;28;20295;-75
2024/03/13 12:29:38;;;;;;;;;;;;;;;;;;5094534;28;19924;-76
2024/03/13 12:32:05;;;;;;;;;;;;;;;;;;5080760;28;20003;-76
2024/03/13 12:34:32;;;;;;;;;;;;;;;;;;5080130;28;19973;-74
2024/03/13 12:36:58;;;;;;;;;;;;;;;;;;5088294;28;19928;-74
2024/03/13 12:39:25;;;;;;;;;;;;;;;;;;5063911;28;19925;-73
2024/03/13 12:41:51;;;;;;;;;;;;;;;;;;5077439;28;19977;-76
2024/03/13 12:44:18;;;;;;;;;;;;;;;;;;5083452;28;19924;-73
2024/03/13 12:46:44;;;;;;;;;;;;;;;;;;5078798;28;19959;-73
2024/03/13 12:49:15;;;;;;;;;;;;;;;;;;5078913;28;19930;-74
2024/03/13 12:51:42;;;;;;;;;;;;;;;;;;5084481;28;20031;-76
2024/03/13 12:54:10;;;;;;;;;;;;;;;;;;5072196;28;20011;-76
2024/03/13 12:56:38;;;;;;;;;;;;;;;;;;5081653;28;19996;-73
2024/03/13 12:59:05;;;;;;;;;;;;;;;;;;5078520;28;19940;-73
2024/03/13 13:01:31;;;;;;;;;;;;;;;;;;5078389;28;20015;-73
2024/03/13 13:03:57;;;;;;;;;;;;;;;;;;5082655;28;19931;-72
2024/03/13 13:06:24;;;;;;;;;;;;;;;;;;5086638;28;19932;-73
2024/03/13 13:08:50;;;;;;;;;;;;;;;;;;5082791;28;19928;-73
2024/03/13 13:11:20;;;;;;;;;;;;;;;;;;5079042;28;19930;-73
2024/03/13 13:13:46;;;;;;;;;;;;;;;;;;5090235;28;19932;-73
2024/03/13 13:16:12;;;;;;;;;;;;;;;;;;5079980;28;19930;-74
2024/03/13 13:18:41;;;;;;;;;;;;;;;;;;5073484;28;19944;-73
2024/03/13 13:21:09;;;;;;;;;;;;;;;;;;5085620;28;19936;-74
2024/03/13 13:23:38;;;;;;;;;;;;;;;;;;5084600;28;19928;-74
2024/03/13 13:26:08;;;;;;;;;;;;;;;;;;5101503;28;19943;-74
2024/03/13 13:28:35;;;;;;;;;;;;;;;;;;5082266;28;19931;-73
2024/03/13 13:31:01;;;;;;;;;;;;;;;;;;5081526;28;19928;-73
2024/03/13 13:33:27;;;;;;;;;;;;;;;;;;5081154;28;19928;-73
2024/03/13 13:35:54;;;;;;;;;;;;;;;;;;5083137;28;20356;-72
2024/03/13 13:38:23;;;;;;;;;;;;;;;;;;5081245;28;20039;-73
2024/03/13 13:40:50;;;;;;;;;;;;;;;;;;5079924;28;20007;-73
2024/03/13 13:43:16;;;;;;;;;;;;;;;;;;5080857;28;20019;-74
2024/03/13 13:45:44;;;;;;;;;;;;;;;;;;5082013;28;19928;-73
2024/03/13 13:48:12;;;;;;;;;;;;;;;;;;5083019;28;19929;-73
2024/03/13 13:50:38;;;;;;;;;;;;;;;;;;5081677;28;19936;-72
2024/03/13 13:53:05;;;;;;;;;;;;;;;;;;5081071;28;20287;-72
2024/03/13 13:55:31;;;;;;;;;;;;;;;;;;5082972;28;20366;-74
2024/03/13 13:57:57;;;;;;;;;;;;;;;;;;5084397;28;19936;-73
2024/03/13 14:00:24;;;;;;;;;;;;;;;;;;5083588;28;19932;-74
2024/03/13 14:02:52;;;;;;;;;;;;;;;;;;5086971;28;19924;-73
2024/03/13 14:05:20;;;;;;;;;;;;;;;;;;5080382;28;19931;-72
2024/03/13 14:07:48;;;;;;;;;;;;;;;;;;5083965;28;20010;-72
2024/03/13 14:10:14;;;;;;;;;;;;;;;;;;5084218;28;20492;-73
2024/03/13 14:12:42;;;;;;;;;;;;;;;;;;5087508;28;20601;-74
2024/03/13 14:15:19;;;;;;;;;;;;;;;;;;5084281;28;19989;-73
2024/03/13 14:17:46;;;;;;;;;;;;;;;;;;5081152;28;19924;-74
2024/03/13 14:20:13;;;;;;;;;;;;;;;;;;5079724;28;19947;-73
2024/03/13 14:22:44;;;;;;;;;;;;;;;;;;5082080;28;19924;-72
2024/03/13 14:25:11;;;;;;;;;;;;;;;;;;5091704;28;19924;-74
2024/03/13 14:27:41;;;;;;;;;;;;;;;;;;5085755;28;19930;-73
2024/03/13 14:30:11;;;;;;;;;;;;;;;;;;5079987;28;19974;-74
2024/03/13 14:32:37;;;;;;;;;;;;;;;;;;5094360;28;20521;-74
2024/03/13 14:35:05;;;;;;;;;;;;;;;;;;5073841;28;19931;-74
2024/03/13 14:37:33;;;;;;;;;;;;;;;;;;5083091;28;20384;-74
2024/03/13 14:40:03;;;;;;;;;;;;;;;;;;5082789;28;20027;-73
2024/03/13 14:42:34;;;;;;;;;;;;;;;;;;5082905;28;19959;-74
2024/03/13 14:45:00;;;;;;;;;;;;;;;;;;5079479;28;19970;-75
2024/03/13 14:47:27;;;;;;;;;;;;;;;;;;5081413;28;19928;-73
2024/03/13 14:49:54;;;;;;;;;;;;;;;;;;5079230;28;20323;-73
2024/03/13 14:52:20;;;;;;;;;;;;;;;;;;5072884;28;19936;-71
2024/03/13 14:54:47;;;;;;;;;;;;;;;;;;5082335;28;19924;-73
2024/03/13 14:57:13;;;;;;;;;;;;;;;;;;5078901;28;19928;-73
2024/03/13 14:59:39;;;;;;;;;;;;;;;;;;5083722;28;19932;-74
2024/03/13 15:02:06;;;;;;;;;;;;;;;;;;5080886;28;19928;-73
2024/03/13 15:04:32;;;;;;;;;;;;;;;;;;5081467;28;20380;-73
2024/03/13 15:07:02;;;;;;;;;;;;;;;;;;5081481;28;19935;-74
2024/03/13 15:09:29;;;;;;;;;;;;;;;;;;5094987;28;19928;-74
2024/03/13 15:11:55;;;;;;;;;;;;;;;;;;5079677;28;20387;-73
2024/03/13 15:14:22;;;;;;;;;;;;;;;;;;5081075;28;19924;-73
2024/03/13 15:16:50;;;;;;;;;;;;;;;;;;5081825;28;19932;-73
2024/03/13 15:19:16;;;;;;;;;;;;;;;;;;5079839;28;20020;-73
2024/03/13 15:21:43;;;;;;;;;;;;;;;;;;5082613;28;20019;-72
2024/03/13 15:24:09;;;;;;;;;;;;;;;;;;5079307;28;19942;-73
2024/03/13 15:26:38;;;;;;;;;;;;;;;;;;5078239;28;21273;-72
2024/03/13 15:29:05;;;;;;;;;;;;;;;;;;5079922;28;19973;-73
2024/03/13 15:31:32;;;;;;;;;;;;;;;;;;5079494;28;20312;-74
2024/03/13 15:33:58;;;;;;;;;;;;;;;;;;5082809;28;20040;-73
2024/03/13 15:36:25;;;;;;;;;;;;;;;;;;5082549;28;19934;-73
2024/03/13 15:38:52;;;;;;;;;;;;;;;;;;5078771;28;19982;-73
2024/03/13 15:41:19;;;;;;;;;;;;;;;;;;5082096;28;19924;-73
2024/03/13 15:43:45;;;;;;;;;;;;;;;;;;5085524;28;19932;-72
2024/03/13 15:46:11;;;;;;;;;;;;;;;;;;5079153;28;19931;-75
2024/03/13 15:48:38;;;;;;;;;;;;;;;;;;5080186;28;19924;-74
2024/03/13 15:51:06;;;;;;;;;;;;;;;;;;5080113;28;19924;-73
2024/03/13 15:53:33;;;;;;;;;;;;;;;;;;5080325;28;20008;-74
2024/03/13 15:55:59;;;;;;;;;;;;;;;;;;5082278;28;19928;-73
2024/03/13 15:58:26;;;;;;;;;;;;;;;;;;5078170;28;19928;-74
2024/03/13 16:00:55;;;;;;;;;;;;;;;;;;5078660;28;19934;-75
2024/03/13 16:03:22;;;;;;;;;;;;;;;;;;5080268;28;20018;-74
2024/03/13 16:05:49;;;;;;;;;;;;;;;;;;5080306;28;19951;-73
2024/03/13 16:08:15;;;;;;;;;;;;;;;;;;5077590;28;19955;-74
2024/03/13 16:10:43;;;;;;;;;;;;;;;;;;5082441;28;19925;-73
2024/03/13 16:13:09;;;;;;;;;;;;;;;;;;5078685;28;19928;-74
2024/03/13 16:15:35;;;;;;;;;;;;;;;;;;5084282;28;19974;-74
2024/03/13 16:18:02;;;;;;;;;;;;;;;;;;5074903;28;20435;-71
2024/03/13 16:20:29;;;;;;;;;;;;;;;;;;5079104;28;19975;-73
2024/03/13 16:22:57;;;;;;;;;;;;;;;;;;5078905;28;20705;-73
2024/03/13 16:25:23;;;;;;;;;;;;;;;;;;5077524;28;19934;-73
2024/03/13 16:27:53;;;;;;;;;;;;;;;;;;5074647;28;19928;-74
2024/03/13 16:30:20;;;;;;;;;;;;;;;;;;5077682;28;19934;-74
2024/03/13 16:32:47;;;;;;;;;;;;;;;;;;5078589;28;19932;-73
2024/03/13 16:35:14;;;;;;;;;;;;;;;;;;5079516;28;20019;-74
2024/03/13 16:37:41;;;;;;;;;;;;;;;;;;5066659;28;19928;-73
2024/03/13 16:40:08;;;;;;;;;;;;;;;;;;5085804;28;19928;-74
2024/03/13 16:42:35;;;;;;;;;;;;;;;;;;5085329;28;19928;-73
2024/03/13 16:45:01;;;;;;;;;;;;;;;;;;5080168;28;19929;-73
2024/03/13 16:47:30;;;;;;;;;;;;;;;;;;5086375;28;19948;-73
2024/03/13 16:49:57;;;;;;;;;;;;;;;;;;5082870;28;19930;-73
2024/03/13 16:52:23;;;;;;;;;;;;;;;;;;5084197;28;19951;-74
2024/03/13 16:54:51;;;;;;;;;;;;;;;;;;5075793;28;19931;-75
2024/03/13 16:57:18;;;;;;;;;;;;;;;;;;5083698;28;19924;-74
2024/03/13 16:59:48;;;;;;;;;;;;;;;;;;5082635;28;19967;-74
2024/03/13 17:02:15;;;;;;;;;;;;;;;;;;5083379;28;20019;-74
2024/03/13 17:04:42;;;;;;;;;;;;;;;;;;5084823;28;19928;-75
2024/03/13 17:07:09;;;;;;;;;;;;;;;;;;5083527;28;20019;-73
2024/03/13 17:09:35;;;;;;;;;;;;;;;;;;5086738;28;19939;-73
2024/03/13 17:12:02;;;;;;;;;;;;;;;;;;5082583;28;19970;-72
2024/03/13 17:14:29;;;;;;;;;;;;;;;;;;5085139;28;19959;-73